Terminal Aerodrome Forecast
Issued by NWS Paducah, KY

Home | Current Version | Previous Version | Text Only | Print | Product List | Glossary On
Versions: 1 2 3 4 5 6 7 8 9 10 11 12 13 14 15 16 17 18 19 20 21 22
000
FTUS43 KPAH 202320
TAFPAH
TAF
KPAH 202320Z 2100/2124 14005KT P6SM BKN250
     FM211100 14004KT 6SM -SHRA BR OVC050
     FM211400 13005KT 4SM -SHRA BR OVC015
     FM211800 13005KT 5SM -SHRA BR OVC008=

USA.gov is the U.S. government's official web portal to all federal, state and local government web resources and services.